Machigonne II — WBT2391 — position and weather

sailwx.info

Track history (hours):
 
Tides and Currents Weather Stations Pressure Air Temp Water Temp Dewpoint Dewpoint Depression Visibility Wind Speed Wind Dir Waves Ship Positions

Machigonne II

Owner: CASCO BAY ISLAND TRANSIT DISTRICT, PORTLAND, ME. More information available from US FCC via Universal Licensing System and Coast Guard Vessel Documentation Center.

Last reported at 2017-Sep-24 02:05 UTC. Time now 2017-Nov-20 23:10 UTC.
Position N 43°39' W 070°15'.
Warning: this ship's position is 57 days out of date.

Type: Passenger vessel. MMSI: 367340680.

Date/timePositionNaut miles runAvg speedWind from/ knotsBaromVisibWave heightAir tempDewpointWater temp
2017-Sep-24 02:05N 43°39' W 070°15'2 1.4
2017-Sep-24 00:48N 43°39' W 070°12'0 0.2
2017-Sep-24 00:30N 43°39' W 070°12'2 3.0
2017-Sep-24 00:00N 43°39' W 070°15'2 3.1
2017-Sep-23 23:30N 43°39' W 070°12'  
2017-Sep-15 16:46N 43°39' W 070°12'0 0.1
2017-Sep-15 16:30N 43°39' W 070°12'1 2.1
2017-Sep-15 15:56N 43°40' W 070°14'1 1.9
2017-Sep-15 15:30N 43°39' W 070°13'1 1.7
2017-Sep-15 15:00N 43°40' W 070°14'0 0.6
2017-Sep-15 14:30N 43°40' W 070°13'0 0.7
2017-Sep-15 14:00N 43°39' W 070°14'1 1.6
2017-Sep-15 13:30N 43°39' W 070°13'2 3.2
2017-Sep-15 13:00N 43°39' W 070°15'0 0.0
2017-Sep-15 12:30N 43°39' W 070°15'2 4.1
2017-Sep-15 12:00N 43°39' W 070°12'2 4.1
2017-Sep-15 11:30N 43°39' W 070°15'2 4.2
2017-Sep-15 11:00N 43°39' W 070°12'2 4.2
2017-Sep-15 10:31N 43°39' W 070°15'2 3.3
2017-Sep-15 10:00N 43°39' W 070°13'2 0.2
2017-Sep-15 03:13N 43°39' W 070°15'1 6.8
2017-Sep-15 03:00N 43°39' W 070°13'1 2.9
2017-Sep-15 02:30N 43°39' W 070°15'0 0.2
2017-Sep-15 02:00N 43°39' W 070°15'2 3.8
2017-Sep-15 01:30N 43°39' W 070°12'2 3.8
2017-Sep-15 01:00N 43°39' W 070°15'1 2.7
2017-Sep-15 00:30N 43°39' W 070°13'1 2.8
2017-Sep-15 00:00N 43°39' W 070°15'1 0.3
2017-Sep-14 21:42N 43°40' W 070°14'1 2.8
2017-Sep-14 21:27N 43°39' W 070°15'2 4.6
2017-Sep-14 21:00N 43°39' W 070°12'2 4.1
2017-Sep-14 20:30N 43°39' W 070°15'0 0.0
2017-Sep-14 20:00N 43°39' W 070°15'2 3.9
2017-Sep-14 19:30N 43°39' W 070°12'2 3.9
2017-Sep-14 19:00N 43°39' W 070°15'2 3.6
2017-Sep-14 18:30N 43°39' W 070°12'2 3.7
2017-Sep-14 18:00N 43°39' W 070°15'0 0.0
2017-Sep-14 17:30N 43°39' W 070°15'0 0.0
2017-Sep-14 17:00N 43°39' W 070°15'2 4.1
2017-Sep-14 16:30N 43°39' W 070°12'2 3.9
2017-Sep-14 16:00N 43°39' W 070°15'2 3.8
2017-Sep-14 15:30N 43°39' W 070°12'2 4.0
2017-Sep-14 15:00N 43°39' W 070°15'2 4.1
2017-Sep-14 14:30N 43°39' W 070°12'2 4.1
2017-Sep-14 14:00N 43°39' W 070°15'2 4.1
2017-Sep-14 13:30N 43°39' W 070°12'2 4.1
2017-Sep-14 13:00N 43°39' W 070°15'0 0.0
2017-Sep-14 12:30N 43°39' W 070°15'2 4.2
2017-Sep-14 12:00N 43°39' W 070°12'2 4.0
2017-Sep-14 11:30N 43°39' W 070°15'2 3.8
2017-Sep-14 11:00N 43°39' W 070°12'2 3.8
2017-Sep-14 10:30N 43°39' W 070°15'2 3.3
2017-Sep-14 10:00N 43°39' W 070°12'2 0.3
2017-Sep-14 03:14N 43°39' W 070°15'1 6.2
2017-Sep-14 03:00N 43°39' W 070°13'1 2.9
2017-Sep-14 02:30N 43°39' W 070°15'  
Track history (hours):
 
Tides and Currents Weather Stations Pressure Air Temp Water Temp Dewpoint Dewpoint Depression Visibility Wind Speed Wind Dir Waves Ship Positions

Machigonne II

Owner: CASCO BAY ISLAND TRANSIT DISTRICT, PORTLAND, ME. More information available from US FCC via Universal Licensing System and Coast Guard Vessel Documentation Center.

Last reported at 2017-Sep-24 02:05 UTC. Time now 2017-Nov-20 23:10 UTC.
Position N 43°39' W 070°15'.
Warning: this ship's position is 57 days out of date.

Type: Passenger vessel. MMSI: 367340680.

Date/timePositionNaut miles runAvg speedWind from/ knotsBaromVisibWave heightAir tempDewpointWater temp
2017-Sep-24 02:05N 43°39' W 070°15'2 1.4
2017-Sep-24 00:48N 43°39' W 070°12'0 0.2
2017-Sep-24 00:30N 43°39' W 070°12'2 3.0
2017-Sep-24 00:00N 43°39' W 070°15'2 3.1
2017-Sep-23 23:30N 43°39' W 070°12'  
2017-Sep-15 16:46N 43°39' W 070°12'0 0.1
2017-Sep-15 16:30N 43°39' W 070°12'1 2.1
2017-Sep-15 15:56N 43°40' W 070°14'1 1.9
2017-Sep-15 15:30N 43°39' W 070°13'1 1.7
2017-Sep-15 15:00N 43°40' W 070°14'0 0.6
2017-Sep-15 14:30N 43°40' W 070°13'0 0.7
2017-Sep-15 14:00N 43°39' W 070°14'1 1.6
2017-Sep-15 13:30N 43°39' W 070°13'2 3.2
2017-Sep-15 13:00N 43°39' W 070°15'0 0.0
2017-Sep-15 12:30N 43°39' W 070°15'2 4.1
2017-Sep-15 12:00N 43°39' W 070°12'2 4.1
2017-Sep-15 11:30N 43°39' W 070°15'2 4.2
2017-Sep-15 11:00N 43°39' W 070°12'2 4.2
2017-Sep-15 10:31N 43°39' W 070°15'2 3.3
2017-Sep-15 10:00N 43°39' W 070°13'2 0.2
2017-Sep-15 03:13N 43°39' W 070°15'1 6.8
2017-Sep-15 03:00N 43°39' W 070°13'1 2.9
2017-Sep-15 02:30N 43°39' W 070°15'0 0.2
2017-Sep-15 02:00N 43°39' W 070°15'2 3.8
2017-Sep-15 01:30N 43°39' W 070°12'2 3.8
2017-Sep-15 01:00N 43°39' W 070°15'1 2.7
2017-Sep-15 00:30N 43°39' W 070°13'1 2.8
2017-Sep-15 00:00N 43°39' W 070°15'1 0.3
2017-Sep-14 21:42N 43°40' W 070°14'1 2.8
2017-Sep-14 21:27N 43°39' W 070°15'2 4.6
2017-Sep-14 21:00N 43°39' W 070°12'2 4.1
2017-Sep-14 20:30N 43°39' W 070°15'0 0.0
2017-Sep-14 20:00N 43°39' W 070°15'2 3.9
2017-Sep-14 19:30N 43°39' W 070°12'2 3.9
2017-Sep-14 19:00N 43°39' W 070°15'2 3.6
2017-Sep-14 18:30N 43°39' W 070°12'2 3.7
2017-Sep-14 18:00N 43°39' W 070°15'0 0.0
2017-Sep-14 17:30N 43°39' W 070°15'0 0.0
2017-Sep-14 17:00N 43°39' W 070°15'2 4.1
2017-Sep-14 16:30N 43°39' W 070°12'2 3.9
2017-Sep-14 16:00N 43°39' W 070°15'2 3.8
2017-Sep-14 15:30N 43°39' W 070°12'2 4.0
2017-Sep-14 15:00N 43°39' W 070°15'2 4.1
2017-Sep-14 14:30N 43°39' W 070°12'2 4.1
2017-Sep-14 14:00N 43°39' W 070°15'2 4.1
2017-Sep-14 13:30N 43°39' W 070°12'2 4.1
2017-Sep-14 13:00N 43°39' W 070°15'0 0.0
2017-Sep-14 12:30N 43°39' W 070°15'2 4.2
2017-Sep-14 12:00N 43°39' W 070°12'2 4.0
2017-Sep-14 11:30N 43°39' W 070°15'2 3.8
2017-Sep-14 11:00N 43°39' W 070°12'2 3.8
2017-Sep-14 10:30N 43°39' W 070°15'2 3.3
2017-Sep-14 10:00N 43°39' W 070°12'2 0.3
2017-Sep-14 03:14N 43°39' W 070°15'1 6.2
2017-Sep-14 03:00N 43°39' W 070°13'1 2.9
2017-Sep-14 02:30N 43°39' W 070°15'  

Dump ship's entire track history